Time;durP1;ratioP1;P1;durP2;ratioP2;P2;SDS_P1;SDS_P2;PMS_P1;PMS_P2;Temp;Humidity;BMP_temperature;BMP_pressure;BME280_temperature;BME280_humidity;BME280_pressure;Samples;Min_cycle;Max_cycle;Signal;HPM_P1;HPM_P2
2021/11/29 00:01:41;;;;;;;4.75;0.93;;;;;;;;;;5047050;28;20035;-41
2021/11/29 00:04:07;;;;;;;8.43;1.08;;;;;;;;;;5046007;28;20020;-39
2021/11/29 00:06:32;;;;;;;3.53;1.60;;;;;;;;;;5047101;28;20043;-39
2021/11/29 00:08:57;;;;;;;3.05;1.02;;;;;;;;;;5047054;28;20486;-39
2021/11/29 00:11:23;;;;;;;3.25;1.02;;;;;;;;;;5045262;28;20028;-38
2021/11/29 00:13:48;;;;;;;8.57;1.40;;;;;;;;;;5044923;28;20029;-39
2021/11/29 00:16:14;;;;;;;2.63;0.88;;;;;;;;;;5046353;28;20069;-40
2021/11/29 00:18:39;;;;;;;8.02;1.42;;;;;;;;;;5046072;28;20087;-40
2021/11/29 00:21:05;;;;;;;7.97;1.58;;;;;;;;;;5046721;28;20055;-38
2021/11/29 00:23:31;;;;;;;4.85;0.88;;;;;;;;;;5046328;28;20048;-38
2021/11/29 00:25:57;;;;;;;4.45;1.50;;;;;;;;;;5045999;28;20059;-39
2021/11/29 00:28:22;;;;;;;12.70;1.58;;;;;;;;;;5046613;28;20025;-40
2021/11/29 00:30:47;;;;;;;6.43;1.27;;;;;;;;;;5046507;28;20484;-40
2021/11/29 00:33:13;;;;;;;9.68;1.02;;;;;;;;;;5045926;28;20516;-39
2021/11/29 00:35:39;;;;;;;1.63;0.45;;;;;;;;;;5046007;28;20044;-39
2021/11/29 00:38:05;;;;;;;3.50;0.85;;;;;;;;;;5046518;28;20152;-38
2021/11/29 00:40:30;;;;;;;2.00;0.50;;;;;;;;;;5046095;28;20116;-40
2021/11/29 00:42:56;;;;;;;0.68;0.35;;;;;;;;;;5046784;28;20067;-38
2021/11/29 00:45:21;;;;;;;2.90;0.47;;;;;;;;;;5046555;28;20429;-38
2021/11/29 00:47:46;;;;;;;3.25;1.08;;;;;;;;;;5046507;28;20021;-38
2021/11/29 00:50:13;;;;;;;3.78;1.48;;;;;;;;;;5046167;28;20479;-42
2021/11/29 00:52:40;;;;;;;0.95;0.47;;;;;;;;;;5046095;28;20078;-38
2021/11/29 00:55:06;;;;;;;2.00;0.30;;;;;;;;;;5043598;28;20021;-40
2021/11/29 00:57:31;;;;;;;1.70;0.10;;;;;;;;;;5045900;28;20508;-39
2021/11/29 00:59:56;;;;;;;1.75;0.68;;;;;;;;;;5045896;28;20108;-40
2021/11/29 01:02:22;;;;;;;1.67;0.38;;;;;;;;;;5046585;28;20039;-41
2021/11/29 01:04:48;;;;;;;2.42;0.47;;;;;;;;;;5045532;28;20485;-41
2021/11/29 01:07:13;;;;;;;5.53;1.02;;;;;;;;;;5046402;28;20024;-39
2021/11/29 01:09:38;;;;;;;4.85;1.48;;;;;;;;;;5046508;28;20396;-39
2021/11/29 01:12:04;;;;;;;2.03;0.30;;;;;;;;;;5044477;28;20036;-38
2021/11/29 01:14:29;;;;;;;0.65;0.20;;;;;;;;;;5044806;28;20028;-38
2021/11/29 01:16:54;;;;;;;10.20;0.52;;;;;;;;;;5046176;28;20045;-39
2021/11/29 01:19:20;;;;;;;2.65;0.80;;;;;;;;;;5045020;28;20044;-38
2021/11/29 01:21:45;;;;;;;2.10;0.60;;;;;;;;;;5045998;28;20017;-39
2021/11/29 01:24:10;;;;;;;6.30;1.98;;;;;;;;;;5046349;28;20024;-38
2021/11/29 01:26:36;;;;;;;7.03;1.77;;;;;;;;;;5045041;28;20029;-38
2021/11/29 01:29:01;;;;;;;1.05;0.43;;;;;;;;;;5045241;28;20025;-40
2021/11/29 01:31:26;;;;;;;3.55;1.25;;;;;;;;;;5044049;28;20029;-38
2021/11/29 01:33:52;;;;;;;7.00;1.35;;;;;;;;;;5045933;28;20025;-39
2021/11/29 01:36:17;;;;;;;1.58;0.93;;;;;;;;;;5046302;28;20029;-38
2021/11/29 01:38:42;;;;;;;1.95;0.63;;;;;;;;;;5049939;28;20025;-38
2021/11/29 01:41:13;;;;;;;0.25;0.15;;;;;;;;;;5048966;28;20023;-41
2021/11/29 01:43:38;;;;;;;5.93;0.57;;;;;;;;;;5050275;28;20144;-39
2021/11/29 01:46:06;;;;;;;6.13;1.10;;;;;;;;;;5050121;28;20107;-39
2021/11/29 01:48:32;;;;;;;0.40;0.25;;;;;;;;;;5049704;28;20092;-39
2021/11/29 01:50:58;;;;;;;1.95;0.45;;;;;;;;;;5048839;28;20049;-38
2021/11/29 01:53:25;;;;;;;12.45;1.05;;;;;;;;;;5049488;28;20031;-37
2021/11/29 01:55:51;;;;;;;11.13;1.67;;;;;;;;;;5049780;28;20078;-38
2021/11/29 01:58:16;;;;;;;3.58;1.55;;;;;;;;;;5049682;28;20017;-39
2021/11/29 02:00:45;;;;;;;3.70;1.40;;;;;;;;;;5049709;28;20602;-40
2021/11/29 02:03:10;;;;;;;8.35;1.50;;;;;;;;;;5048686;28;20040;-38
2021/11/29 02:05:36;;;;;;;3.33;0.65;;;;;;;;;;5049084;28;20032;-40
2021/11/29 02:08:01;;;;;;;6.05;1.23;;;;;;;;;;5049179;28;20047;-38
2021/11/29 02:10:27;;;;;;;5.85;0.68;;;;;;;;;;5048742;28;20025;-38
2021/11/29 02:12:53;;;;;;;7.28;1.23;;;;;;;;;;5048664;28;20051;-41
2021/11/29 02:15:18;;;;;;;4.65;1.00;;;;;;;;;;5048694;28;20041;-37
2021/11/29 02:17:45;;;;;;;1.77;0.93;;;;;;;;;;5049193;28;20083;-38
2021/11/29 02:20:10;;;;;;;4.00;1.15;;;;;;;;;;5048260;28;20017;-38
2021/11/29 02:22:36;;;;;;;1.90;0.73;;;;;;;;;;5047926;28;20426;-38
2021/11/29 02:25:02;;;;;;;0.95;0.32;;;;;;;;;;5047510;28;20032;-39
2021/11/29 02:27:27;;;;;;;3.92;0.90;;;;;;;;;;5049250;28;20486;-37
2021/11/29 02:29:56;;;;;;;9.23;0.95;;;;;;;;;;5048374;28;20025;-38
2021/11/29 02:32:21;;;;;;;3.08;1.27;;;;;;;;;;5047324;28;20021;-38
2021/11/29 02:34:47;;;;;;;1.75;0.47;;;;;;;;;;5048839;28;20009;-37
2021/11/29 02:37:13;;;;;;;8.73;1.60;;;;;;;;;;5048664;28;20609;-37
2021/11/29 02:39:41;;;;;;;4.00;0.93;;;;;;;;;;5048957;28;20017;-38
2021/11/29 02:42:07;;;;;;;5.63;1.30;;;;;;;;;;5048579;28;20021;-37
2021/11/29 02:44:32;;;;;;;2.00;0.32;;;;;;;;;;5049102;28;20468;-38
2021/11/29 02:46:58;;;;;;;5.43;0.25;;;;;;;;;;5048330;28;20031;-38
2021/11/29 02:49:23;;;;;;;4.60;1.52;;;;;;;;;;5048315;28;20056;-39
2021/11/29 02:52:02;;;;;;;5.53;0.60;;;;;;;;;;5048082;28;20783;-40
2021/11/29 02:54:29;;;;;;;1.25;0.32;;;;;;;;;;5047235;28;20108;-40
2021/11/29 02:56:56;;;;;;;1.25;0.77;;;;;;;;;;5047852;28;20028;-38
2021/11/29 02:59:23;;;;;;;3.70;0.38;;;;;;;;;;5048314;28;20013;-38
2021/11/29 03:01:49;;;;;;;4.30;0.82;;;;;;;;;;5048420;28;20017;-38
2021/11/29 03:04:17;;;;;;;3.63;1.33;;;;;;;;;;5047870;28;20017;-38
2021/11/29 03:06:42;;;;;;;5.78;2.05;;;;;;;;;;5047891;28;20504;-38
2021/11/29 03:09:08;;;;;;;1.13;0.47;;;;;;;;;;5048673;28;20110;-38
2021/11/29 03:11:33;;;;;;;8.38;1.45;;;;;;;;;;5047363;28;20138;-38
2021/11/29 03:13:59;;;;;;;2.17;0.88;;;;;;;;;;5048999;28;20078;-38
2021/11/29 03:16:24;;;;;;;3.67;0.93;;;;;;;;;;5048019;28;20332;-38
2021/11/29 03:18:49;;;;;;;7.05;2.20;;;;;;;;;;5045624;28;20392;-40
2021/11/29 03:21:17;;;;;;;1.92;0.90;;;;;;;;;;5047994;28;20021;-38
2021/11/29 03:23:43;;;;;;;16.88;1.90;;;;;;;;;;5047551;28;20079;-40
2021/11/29 03:26:10;;;;;;;4.22;1.30;;;;;;;;;;5047397;28;20024;-39
2021/11/29 03:28:39;;;;;;;8.57;1.10;;;;;;;;;;5048456;28;20021;-40
2021/11/29 03:31:05;;;;;;;1.25;0.47;;;;;;;;;;5046693;28;20040;-41
2021/11/29 03:33:30;;;;;;;4.25;1.85;;;;;;;;;;5047252;28;20516;-39
2021/11/29 03:35:56;;;;;;;1.48;0.57;;;;;;;;;;5045278;28;20041;-39
2021/11/29 03:38:21;;;;;;;5.05;1.02;;;;;;;;;;5047030;28;20031;-41
2021/11/29 03:40:46;;;;;;;7.32;1.13;;;;;;;;;;5047142;28;20424;-38
2021/11/29 03:43:12;;;;;;;7.05;1.48;;;;;;;;;;5047234;28;20021;-40
2021/11/29 03:45:37;;;;;;;6.28;1.40;;;;;;;;;;5047499;28;20044;-40
2021/11/29 03:48:02;;;;;;;5.75;0.70;;;;;;;;;;5047208;28;20379;-39
2021/11/29 03:50:28;;;;;;;12.68;1.60;;;;;;;;;;5047205;28;20016;-41
2021/11/29 03:52:53;;;;;;;10.10;1.63;;;;;;;;;;5047230;28;20095;-38
2021/11/29 03:55:18;;;;;;;2.38;0.65;;;;;;;;;;5046895;28;20509;-38
2021/11/29 03:57:44;;;;;;;3.20;1.15;;;;;;;;;;5046866;28;20037;-39
2021/11/29 04:00:10;;;;;;;1.13;0.50;;;;;;;;;;5047103;28;20024;-38
2021/11/29 04:02:35;;;;;;;2.05;0.50;;;;;;;;;;5044066;28;20017;-38
2021/11/29 04:05:00;;;;;;;5.82;0.82;;;;;;;;;;5046445;28;20047;-38
2021/11/29 04:07:26;;;;;;;0.05;0.05;;;;;;;;;;5045608;28;20025;-38
2021/11/29 04:09:51;;;;;;;2.95;0.50;;;;;;;;;;5046474;28;20025;-38
2021/11/29 04:12:16;;;;;;;4.63;2.20;;;;;;;;;;5043782;28;20101;-38
2021/11/29 04:14:42;;;;;;;1.60;1.05;;;;;;;;;;5044381;28;20110;-38
2021/11/29 04:17:07;;;;;;;0.73;0.45;;;;;;;;;;5046184;28;20107;-40
2021/11/29 04:19:37;;;;;;;0.75;0.55;;;;;;;;;;5045814;28;20053;-38
2021/11/29 04:22:03;;;;;;;10.68;1.38;;;;;;;;;;5047170;28;20099;-38
2021/11/29 04:24:28;;;;;;;5.97;1.45;;;;;;;;;;5046663;28;20524;-40
2021/11/29 04:26:55;;;;;;;5.85;1.55;;;;;;;;;;5044016;28;20032;-38
2021/11/29 04:29:23;;;;;;;7.95;0.93;;;;;;;;;;5047366;28;20021;-38
2021/11/29 04:31:49;;;;;;;1.23;0.25;;;;;;;;;;5044186;28;20024;-37
2021/11/29 04:34:15;;;;;;;9.63;1.15;;;;;;;;;;5046045;28;20074;-37
2021/11/29 04:36:40;;;;;;;17.85;1.80;;;;;;;;;;5047186;28;20025;-38
2021/11/29 04:39:06;;;;;;;0.25;0.10;;;;;;;;;;5045738;28;20029;-39
2021/11/29 04:41:32;;;;;;;3.13;0.43;;;;;;;;;;5045939;28;20017;-38
2021/11/29 04:43:57;;;;;;;0.57;0.35;;;;;;;;;;5046650;28;20020;-40
2021/11/29 04:46:23;;;;;;;21.65;1.35;;;;;;;;;;5046211;28;20025;-40
2021/11/29 04:48:48;;;;;;;8.65;2.03;;;;;;;;;;5046003;28;20070;-38
2021/11/29 04:51:13;;;;;;;6.03;1.38;;;;;;;;;;5045999;28;20193;-38
2021/11/29 04:53:41;;;;;;;6.72;1.60;;;;;;;;;;5045393;28;20036;-39
2021/11/29 04:56:06;;;;;;;2.28;0.70;;;;;;;;;;5045992;28;20476;-41
2021/11/29 04:58:32;;;;;;;3.25;0.75;;;;;;;;;;5045477;28;20031;-39
2021/11/29 05:00:57;;;;;;;8.23;0.98;;;;;;;;;;5045964;28;20028;-38
2021/11/29 05:03:23;;;;;;;3.70;1.17;;;;;;;;;;5044124;28;20423;-38
2021/11/29 05:05:48;;;;;;;0.20;0.20;;;;;;;;;;5046167;28;20459;-38
2021/11/29 05:08:14;;;;;;;4.57;0.68;;;;;;;;;;5045658;28;20476;-38
2021/11/29 05:10:39;;;;;;;0.47;0.32;;;;;;;;;;5044607;28;20057;-37
2021/11/29 05:13:04;;;;;;;1.55;0.90;;;;;;;;;;5049860;28;20028;-40
2021/11/29 05:15:29;;;;;;;1.58;0.57;;;;;;;;;;5047861;28;20056;-38
2021/11/29 05:17:55;;;;;;;5.20;1.23;;;;;;;;;;5050117;28;20033;-37
2021/11/29 05:20:20;;;;;;;2.22;0.80;;;;;;;;;;5049562;28;20488;-38
2021/11/29 05:22:45;;;;;;;1.95;0.93;;;;;;;;;;5049093;28;20021;-39
2021/11/29 05:25:11;;;;;;;9.10;2.60;;;;;;;;;;5049183;28;20050;-38
2021/11/29 05:27:36;;;;;;;3.25;1.02;;;;;;;;;;5048334;28;20013;-40
2021/11/29 05:30:03;;;;;;;1.92;0.77;;;;;;;;;;5050261;28;20029;-38
2021/11/29 05:32:28;;;;;;;3.05;0.80;;;;;;;;;;5049434;28;20460;-38
2021/11/29 05:34:53;;;;;;;1.30;0.52;;;;;;;;;;5049360;28;20537;-41
2021/11/29 05:37:19;;;;;;;3.70;1.08;;;;;;;;;;5049502;28;20029;-38
2021/11/29 05:39:45;;;;;;;5.45;1.75;;;;;;;;;;5049640;28;20075;-38
2021/11/29 05:42:10;;;;;;;4.65;0.95;;;;;;;;;;5049064;28;20159;-38
2021/11/29 05:44:35;;;;;;;3.78;0.35;;;;;;;;;;5049186;28;20025;-38
2021/11/29 05:47:01;;;;;;;11.50;1.77;;;;;;;;;;5049401;28;20130;-40
2021/11/29 05:49:26;;;;;;;2.97;1.27;;;;;;;;;;5049219;28;20498;-38
2021/11/29 05:51:53;;;;;;;2.30;0.40;;;;;;;;;;5048767;28;20025;-39
2021/11/29 05:54:18;;;;;;;0.88;0.77;;;;;;;;;;5049386;28;20075;-38
2021/11/29 05:56:43;;;;;;;4.47;1.35;;;;;;;;;;5049460;28;20013;-38
2021/11/29 05:59:08;;;;;;;3.95;1.35;;;;;;;;;;5049057;28;20355;-39
2021/11/29 06:01:34;;;;;;;5.38;0.90;;;;;;;;;;5048207;28;20487;-40
2021/11/29 06:04:00;;;;;;;1.20;0.43;;;;;;;;;;5047856;28;20053;-39
2021/11/29 06:06:25;;;;;;;6.18;0.30;;;;;;;;;;5048309;28;20025;-38
2021/11/29 06:08:50;;;;;;;1.65;0.82;;;;;;;;;;5047705;28;20040;-39
2021/11/29 06:11:16;;;;;;;5.00;0.63;;;;;;;;;;5048964;28;20052;-41
2021/11/29 06:13:41;;;;;;;4.68;0.95;;;;;;;;;;5048228;28;20476;-39
2021/11/29 06:16:06;;;;;;;3.70;1.60;;;;;;;;;;5047960;28;20045;-38
2021/11/29 06:18:32;;;;;;;4.72;1.25;;;;;;;;;;5048115;28;20060;-38
2021/11/29 06:20:57;;;;;;;3.38;1.30;;;;;;;;;;5047592;28;20024;-38
2021/11/29 06:23:22;;;;;;;4.50;1.38;;;;;;;;;;5044582;28;20016;-38
2021/11/29 06:25:48;;;;;;;1.08;0.55;;;;;;;;;;5048403;28;20083;-38
2021/11/29 06:28:13;;;;;;;22.60;20.67;;;;;;;;;;5045967;28;20028;-41
2021/11/29 06:30:38;;;;;;;10.73;9.38;;;;;;;;;;5047010;28;20113;-41
2021/11/29 06:33:04;;;;;;;3.38;1.63;;;;;;;;;;5048233;28;20074;-44
2021/11/29 06:35:29;;;;;;;10.77;1.63;;;;;;;;;;5047627;28;20025;-41
2021/11/29 06:37:56;;;;;;;1.55;0.95;;;;;;;;;;5047438;28;20060;-42
2021/11/29 06:40:22;;;;;;;4.45;1.35;;;;;;;;;;5047292;28;20013;-42
2021/11/29 06:42:47;;;;;;;0.68;0.60;;;;;;;;;;5046515;28;20070;-39
2021/11/29 06:45:13;;;;;;;7.10;1.67;;;;;;;;;;5047690;28;20098;-41
2021/11/29 06:47:41;;;;;;;2.38;0.85;;;;;;;;;;5047476;28;20063;-43
2021/11/29 06:50:07;;;;;;;5.13;1.27;;;;;;;;;;5047215;28;20111;-41
2021/11/29 06:52:32;;;;;;;3.63;1.77;;;;;;;;;;5046165;28;20123;-39
2021/11/29 06:54:57;;;;;;;7.35;1.63;;;;;;;;;;5047841;28;20387;-43
2021/11/29 06:57:23;;;;;;;7.63;1.70;;;;;;;;;;5047618;28;20028;-43
2021/11/29 06:59:48;;;;;;;2.00;0.63;;;;;;;;;;5047703;28;20021;-41
2021/11/29 07:02:15;;;;;;;0.95;0.60;;;;;;;;;;5047432;28;20017;-40
2021/11/29 07:04:41;;;;;;;2.60;0.73;;;;;;;;;;5045946;28;20074;-40
2021/11/29 07:07:06;;;;;;;0.90;0.32;;;;;;;;;;5047170;28;20100;-38
2021/11/29 07:09:32;;;;;;;3.40;1.23;;;;;;;;;;5047623;28;20106;-39
2021/11/29 07:11:57;;;;;;;2.72;0.50;;;;;;;;;;5044525;28;20025;-41
2021/11/29 07:14:23;;;;;;;0.98;0.38;;;;;;;;;;5046610;28;20374;-40
2021/11/29 07:16:48;;;;;;;4.38;1.20;;;;;;;;;;5046577;28;20048;-39
2021/11/29 07:19:16;;;;;;;1.00;0.43;;;;;;;;;;5046935;28;20036;-40
2021/11/29 07:21:45;;;;;;;4.43;1.67;;;;;;;;;;5046895;28;20052;-40
2021/11/29 07:24:11;;;;;;;6.03;1.35;;;;;;;;;;5044582;28;20261;-42
2021/11/29 07:26:37;;;;;;;1.30;0.88;;;;;;;;;;5046819;28;20469;-41
2021/11/29 07:29:03;;;;;;;10.73;6.63;;;;;;;;;;5047238;28;20660;-38
2021/11/29 07:31:28;;;;;;;12.10;7.45;;;;;;;;;;5046183;28;20039;-41
2021/11/29 07:33:54;;;;;;;8.23;1.80;;;;;;;;;;5045426;28;20017;-44
2021/11/29 07:36:19;;;;;;;3.05;1.13;;;;;;;;;;5045619;28;20025;-42
2021/11/29 07:38:44;;;;;;;7.18;1.60;;;;;;;;;;5045477;28;20045;-43
2021/11/29 07:41:10;;;;;;;4.10;0.82;;;;;;;;;;5045890;28;20020;-43
2021/11/29 07:43:35;;;;;;;6.00;1.48;;;;;;;;;;5045447;28;20055;-39
2021/11/29 07:46:00;;;;;;;8.65;1.55;;;;;;;;;;5046064;28;20017;-41
2021/11/29 07:48:25;;;;;;;8.40;1.70;;;;;;;;;;5046516;28;20381;-41
2021/11/29 07:50:53;;;;;;;3.00;1.60;;;;;;;;;;5026696;28;20494;-45
2021/11/29 07:53:19;;;;;;;8.63;1.48;;;;;;;;;;5044359;28;20033;-46
2021/11/29 07:55:46;;;;;;;6.93;1.85;;;;;;;;;;5046202;28;20504;-44
2021/11/29 07:58:12;;;;;;;6.90;1.00;;;;;;;;;;5045555;28;20037;-42
2021/11/29 08:00:38;;;;;;;8.00;1.33;;;;;;;;;;5045880;28;20037;-42
2021/11/29 08:03:04;;;;;;;3.05;0.82;;;;;;;;;;5046017;28;20439;-44
2021/11/29 08:05:30;;;;;;;2.53;0.70;;;;;;;;;;5046490;28;20100;-53
2021/11/29 08:07:56;;;;;;;10.55;2.00;;;;;;;;;;5045954;28;20230;-56
2021/11/29 08:10:22;;;;;;;7.28;1.95;;;;;;;;;;5042112;28;20033;-56
2021/11/29 08:12:48;;;;;;;5.50;1.20;;;;;;;;;;5042084;28;20478;-58
2021/11/29 08:15:14;;;;;;;3.97;2.05;;;;;;;;;;5043484;28;20522;-58
2021/11/29 08:17:39;;;;;;;2.15;1.08;;;;;;;;;;5042020;28;20070;-56
2021/11/29 08:20:05;;;;;;;2.38;1.50;;;;;;;;;;5042425;28;20726;-53
2021/11/29 08:22:31;;;;;;;4.65;2.45;;;;;;;;;;5042792;28;20759;-58
2021/11/29 08:24:56;;;;;;;6.57;5.80;;;;;;;;;;5024171;28;20017;-56
2021/11/29 08:27:22;;;;;;;5.85;2.63;;;;;;;;;;5041999;28;20134;-56
2021/11/29 08:29:48;;;;;;;7.85;3.80;;;;;;;;;;5042953;28;20021;-55
2021/11/29 08:32:15;;;;;;;14.07;3.55;;;;;;;;;;5035656;28;20136;-57
2021/11/29 08:34:41;;;;;;;10.30;3.55;;;;;;;;;;5038285;28;20703;-53
2021/11/29 08:37:07;;;;;;;9.05;5.28;;;;;;;;;;5040605;28;20025;-56
2021/11/29 08:39:32;;;;;;;21.02;6.78;;;;;;;;;;5044533;28;20029;-55
2021/11/29 08:41:58;;;;;;;8.15;3.45;;;;;;;;;;5045834;28;20480;-53
2021/11/29 08:44:23;;;;;;;17.65;4.65;;;;;;;;;;5045938;28;20028;-54
2021/11/29 08:46:49;;;;;;;11.35;2.78;;;;;;;;;;5046241;28;20032;-51
2021/11/29 08:49:18;;;;;;;13.75;4.20;;;;;;;;;;5046260;28;20465;-55
2021/11/29 08:51:43;;;;;;;3.58;2.03;;;;;;;;;;5045212;28;20021;-55
2021/11/29 08:54:09;;;;;;;10.02;5.43;;;;;;;;;;5045157;28;20134;-54
2021/11/29 08:56:34;;;;;;;7.20;3.42;;;;;;;;;;5046327;28;20499;-55
2021/11/29 08:59:00;;;;;;;6.95;3.83;;;;;;;;;;5045962;28;20638;-56
2021/11/29 09:01:25;;;;;;;2.42;1.67;;;;;;;;;;5045199;28;20043;-53
2021/11/29 09:03:50;;;;;;;3.17;1.65;;;;;;;;;;5024360;28;20017;-55
2021/11/29 09:06:16;;;;;;;2.53;1.08;;;;;;;;;;5045790;28;20021;-54
2021/11/29 09:08:41;;;;;;;1.00;0.17;;;;;;;;;;5046049;28;20472;-55
2021/11/29 09:11:07;;;;;;;2.60;1.42;;;;;;;;;;5044761;28;20498;-55
2021/11/29 09:13:33;;;;;;;4.78;2.90;;;;;;;;;;5045736;28;20027;-53
2021/11/29 09:16:00;;;;;;;3.85;2.00;;;;;;;;;;5043709;28;20139;-55
2021/11/29 09:18:26;;;;;;;6.20;3.15;;;;;;;;;;5045597;28;20033;-53
2021/11/29 09:20:51;;;;;;;3.25;0.95;;;;;;;;;;5046170;28;20036;-55
2021/11/29 09:23:18;;;;;;;0.40;0.30;;;;;;;;;;5045892;28;20021;-55
2021/11/29 09:25:43;;;;;;;7.40;2.08;;;;;;;;;;5046407;28;20443;-54
2021/11/29 09:28:10;;;;;;;9.30;3.92;;;;;;;;;;5045605;28;20060;-53
2021/11/29 09:30:35;;;;;;;7.25;3.83;;;;;;;;;;5046127;28;20017;-54
2021/11/29 09:33:01;;;;;;;10.35;3.85;;;;;;;;;;5045173;28;20029;-52
2021/11/29 09:35:26;;;;;;;5.55;2.75;;;;;;;;;;5044629;28;20100;-53
2021/11/29 09:37:52;;;;;;;7.38;2.35;;;;;;;;;;5045986;28;20059;-55
2021/11/29 09:40:19;;;;;;;1.42;0.93;;;;;;;;;;5045563;28;20021;-57
2021/11/29 09:42:44;;;;;;;4.25;1.63;;;;;;;;;;5045256;28;20075;-54
2021/11/29 09:45:11;;;;;;;5.13;2.65;;;;;;;;;;5045566;28;20021;-53
2021/11/29 09:47:36;;;;;;;88.90;25.77;;;;;;;;;;5044848;28;20155;-49
2021/11/29 09:50:04;;;;;;;2.00;1.17;;;;;;;;;;5045223;28;20144;-51
2021/11/29 09:52:29;;;;;;;1.98;0.95;;;;;;;;;;5044774;28;20063;-52
2021/11/29 09:54:54;;;;;;;1.95;1.13;;;;;;;;;;5044417;28;20029;-47
2021/11/29 09:57:20;;;;;;;3.90;1.48;;;;;;;;;;5046324;28;20086;-52
2021/11/29 09:59:46;;;;;;;2.08;1.02;;;;;;;;;;5049586;28;20021;-52
2021/11/29 10:02:15;;;;;;;3.97;1.85;;;;;;;;;;5049678;28;20060;-52
2021/11/29 10:04:42;;;;;;;4.20;2.60;;;;;;;;;;5048498;28;20695;-51
2021/11/29 10:07:07;;;;;;;6.00;5.43;;;;;;;;;;5048950;28;20029;-50
2021/11/29 10:09:34;;;;;;;10.25;3.03;;;;;;;;;;5049176;28;20043;-52
2021/11/29 10:12:19;;;;;;;4.57;1.85;;;;;;;;;;5047992;28;20017;-52
2021/11/29 10:14:45;;;;;;;2.25;0.80;;;;;;;;;;5045920;28;20838;-51
2021/11/29 10:17:10;;;;;;;1.75;0.70;;;;;;;;;;5048680;28;20080;-47
2021/11/29 10:19:36;;;;;;;1.80;0.95;;;;;;;;;;5048860;28;20021;-49
2021/11/29 10:22:18;;;;;;;3.53;1.77;;;;;;;;;;5047486;28;20021;-50
2021/11/29 10:24:44;;;;;;;4.97;2.05;;;;;;;;;;5045858;28;20001;-49
2021/11/29 10:27:10;;;;;;;4.03;2.50;;;;;;;;;;5045555;28;20025;-50
2021/11/29 10:29:36;;;;;;;2.95;1.80;;;;;;;;;;5046520;28;20096;-53
2021/11/29 10:32:01;;;;;;;2.95;1.20;;;;;;;;;;5042729;28;20484;-51
2021/11/29 10:34:31;;;;;;;4.15;2.00;;;;;;;;;;5046379;28;20021;-50
2021/11/29 10:37:06;;;;;;;2.72;1.83;;;;;;;;;;5045217;28;20213;-50
2021/11/29 10:39:33;;;;;;;4.80;2.58;;;;;;;;;;5046448;28;20041;-51
2021/11/29 10:42:05;;;;;;;5.07;2.70;;;;;;;;;;5045319;28;20016;-48
2021/11/29 10:44:35;;;;;;;3.20;1.40;;;;;;;;;;5045437;28;20066;-48
2021/11/29 10:47:02;;;;;;;14.45;12.93;;;;;;;;;;5048423;28;20070;-48
2021/11/29 10:49:30;;;;;;;5.20;3.35;;;;;;;;;;5046797;28;20028;-51
2021/11/29 10:51:56;;;;;;;9.60;3.00;;;;;;;;;;5044323;28;20155;-49
2021/11/29 10:54:23;;;;;;;1.02;0.77;;;;;;;;;;5045134;28;20395;-47
2021/11/29 10:56:48;;;;;;;4.35;1.63;;;;;;;;;;5045892;28;20511;-49
2021/11/29 10:59:15;;;;;;;1.33;0.77;;;;;;;;;;5043156;28;20067;-49
2021/11/29 11:01:43;;;;;;;7.43;1.25;;;;;;;;;;5045881;28;20044;-47
2021/11/29 11:04:09;;;;;;;1.42;0.52;;;;;;;;;;5043897;28;20107;-49
2021/11/29 11:06:36;;;;;;;5.63;1.33;;;;;;;;;;5045380;28;20565;-52
2021/11/29 11:09:09;;;;;;;1.35;0.40;;;;;;;;;;5046589;28;20032;-47
2021/11/29 11:11:34;;;;;;;0.68;0.47;;;;;;;;;;5043701;28;20025;-47
2021/11/29 11:14:10;;;;;;;2.55;0.65;;;;;;;;;;5045359;28;20622;-53
2021/11/29 11:16:43;;;;;;;1.05;0.45;;;;;;;;;;5046201;28;20045;-49
2021/11/29 11:19:10;;;;;;;2.47;1.15;;;;;;;;;;5046624;28;20041;-49
2021/11/29 11:21:35;;;;;;;2.00;1.08;;;;;;;;;;5046003;28;20055;-51
2021/11/29 11:24:19;;;;;;;2.35;1.33;;;;;;;;;;5047210;28;20025;-52
2021/11/29 11:26:45;;;;;;;1.67;0.47;;;;;;;;;;5046548;28;20095;-51
2021/11/29 11:29:14;;;;;;;0.55;0.25;;;;;;;;;;5047002;28;20519;-53
2021/11/29 11:31:39;;;;;;;1.75;0.95;;;;;;;;;;5046791;28;20218;-52
2021/11/29 11:34:04;;;;;;;2.13;1.30;;;;;;;;;;5035784;28;20685;-50
2021/11/29 11:36:30;;;;;;;2.60;1.58;;;;;;;;;;5045790;28;20469;-53
2021/11/29 11:39:02;;;;;;;0.73;0.50;;;;;;;;;;5047331;28;20029;-54
2021/11/29 11:41:28;;;;;;;4.90;0.73;;;;;;;;;;5044998;28;20125;-54
2021/11/29 11:43:53;;;;;;;8.30;2.00;;;;;;;;;;5044586;28;20103;-53
2021/11/29 11:46:19;;;;;;;2.30;0.93;;;;;;;;;;5046943;28;20013;-51
2021/11/29 11:48:44;;;;;;;1.27;0.43;;;;;;;;;;5046921;28;20514;-54
2021/11/29 11:51:11;;;;;;;3.47;1.40;;;;;;;;;;5047168;28;20032;-48
2021/11/29 11:53:38;;;;;;;1.15;0.40;;;;;;;;;;5046217;28;20033;-51
2021/11/29 11:56:03;;;;;;;2.53;0.93;;;;;;;;;;5046623;28;20049;-50
2021/11/29 11:58:33;;;;;;;4.55;0.85;;;;;;;;;;5045894;28;20440;-52
2021/11/29 12:00:59;;;;;;;3.78;0.70;;;;;;;;;;5045528;28;20076;-49
2021/11/29 12:03:34;;;;;;;3.70;1.70;;;;;;;;;;5044302;28;20029;-49
2021/11/29 12:06:05;;;;;;;2.35;1.20;;;;;;;;;;5044840;28;20013;-44
2021/11/29 12:08:33;;;;;;;3.60;1.65;;;;;;;;;;5045627;28;20052;-48
2021/11/29 12:10:59;;;;;;;2.00;1.02;;;;;;;;;;5045646;28;20078;-48
2021/11/29 12:13:25;;;;;;;5.00;1.63;;;;;;;;;;5046601;28;20430;-51
2021/11/29 12:15:57;;;;;;;5.43;1.38;;;;;;;;;;5045531;28;20630;-48
2021/11/29 12:18:41;;;;;;;3.58;1.63;;;;;;;;;;5045899;28;20029;-48
2021/11/29 12:21:09;;;;;;;1.45;0.80;;;;;;;;;;5045236;28;20029;-49
2021/11/29 12:23:39;;;;;;;1.60;1.15;;;;;;;;;;5042864;28;20025;-45
2021/11/29 12:26:04;;;;;;;1.02;0.65;;;;;;;;;;5027573;28;20124;-47
2021/11/29 12:28:34;;;;;;;4.50;1.23;;;;;;;;;;5046317;28;20029;-48
2021/11/29 12:30:59;;;;;;;8.35;2.38;;;;;;;;;;5045953;28;20029;-49
2021/11/29 12:33:41;;;;;;;2.47;1.08;;;;;;;;;;5046662;28;20075;-46
2021/11/29 12:36:06;;;;;;;3.10;1.30;;;;;;;;;;5045826;28;20036;-50
2021/11/29 12:38:44;;;;;;;0.85;0.45;;;;;;;;;;5046582;28;20033;-48
2021/11/29 12:41:10;;;;;;;3.22;1.38;;;;;;;;;;5044970;28;20021;-47
2021/11/29 12:43:37;;;;;;;15.68;2.75;;;;;;;;;;5045009;28;20078;-47
2021/11/29 12:46:19;;;;;;;1.48;0.80;;;;;;;;;;5046371;28;20226;-45
2021/11/29 12:48:45;;;;;;;4.70;1.55;;;;;;;;;;5046016;28;20214;-47
2021/11/29 12:51:10;;;;;;;11.65;3.13;;;;;;;;;;5046429;28;20099;-46
2021/11/29 12:53:41;;;;;;;4.35;1.40;;;;;;;;;;5045424;28;20021;-47
2021/11/29 12:56:17;;;;;;;5.80;1.88;;;;;;;;;;5044082;28;20025;-50
2021/11/29 12:58:56;;;;;;;1.27;0.85;;;;;;;;;;5046046;28;20028;-47
2021/11/29 13:01:22;;;;;;;5.00;1.50;;;;;;;;;;5046427;28;20515;-53
2021/11/29 13:03:50;;;;;;;2.95;1.75;;;;;;;;;;5046054;28;20018;-54
2021/11/29 13:06:16;;;;;;;4.75;1.95;;;;;;;;;;5045656;28;20025;-52
2021/11/29 13:08:48;;;;;;;2.00;1.20;;;;;;;;;;5045038;28;20032;-53
2021/11/29 13:11:34;;;;;;;1.52;0.80;;;;;;;;;;5044799;28;20048;-55
2021/11/29 13:14:18;;;;;;;7.25;1.20;;;;;;;;;;5042625;28;20021;-49
2021/11/29 13:16:46;;;;;;;4.85;1.58;;;;;;;;;;5044371;28;20049;-49
2021/11/29 13:19:14;;;;;;;2.35;1.42;;;;;;;;;;5044791;28;20124;-50
2021/11/29 13:21:53;;;;;;;5.53;2.50;;;;;;;;;;5043688;28;20043;-51
2021/11/29 13:24:36;;;;;;;8.73;3.65;;;;;;;;;;5044234;28;20916;-56
2021/11/29 13:27:20;;;;;;;2.53;1.38;;;;;;;;;;5046404;28;20448;-51
2021/11/29 13:29:56;;;;;;;1.30;1.02;;;;;;;;;;5044801;28;20029;-51
2021/11/29 13:32:23;;;;;;;6.53;0.85;;;;;;;;;;5045684;28;20052;-54
2021/11/29 13:34:50;;;;;;;1.98;1.17;;;;;;;;;;5049199;28;20070;-54
2021/11/29 13:37:17;;;;;;;3.75;2.28;;;;;;;;;;5048961;28;20380;-56
2021/11/29 13:39:47;;;;;;;9.38;1.90;;;;;;;;;;5048499;28;20031;-66
2021/11/29 13:42:26;;;;;;;6.18;1.08;;;;;;;;;;5047260;28;20028;-59
2021/11/29 13:45:10;;;;;;;3.97;1.00;;;;;;;;;;5048683;28;20488;-54
2021/11/29 13:47:40;;;;;;;4.65;2.10;;;;;;;;;;5047509;28;20029;-54
2021/11/29 13:50:08;;;;;;;3.42;2.22;;;;;;;;;;5048383;28;20072;-52
2021/11/29 13:52:35;;;;;;;6.25;3.65;;;;;;;;;;5047852;28;20104;-56
2021/11/29 13:55:03;;;;;;;8.35;3.95;;;;;;;;;;5048887;28;20032;-58
2021/11/29 13:57:34;;;;;;;5.22;2.53;;;;;;;;;;5045245;28;20095;-58
2021/11/29 13:59:59;;;;;;;;;;;;;;;;;;5044281;28;20512;-57
2021/11/29 14:02:25;;;;;;;2.72;1.10;;;;;;;;;;5045262;28;20004;-53
2021/11/29 14:04:54;;;;;;;34.85;13.30;;;;;;;;;;5044408;28;20110;-58
2021/11/29 14:07:20;;;;;;;14.73;7.63;;;;;;;;;;5042735;28;20373;-58
2021/11/29 14:09:51;;;;;;;8.15;5.10;;;;;;;;;;5025361;28;20028;-55
2021/11/29 14:12:16;;;;;;;12.77;6.53;;;;;;;;;;5041498;28;20072;-56
2021/11/29 14:14:43;;;;;;;6.35;4.43;;;;;;;;;;5043716;28;20024;-57
2021/11/29 14:17:11;;;;;;;4.88;3.13;;;;;;;;;;5018562;28;20083;-55
2021/11/29 14:19:37;;;;;;;5.57;2.75;;;;;;;;;;5041509;28;20079;-54
2021/11/29 14:22:05;;;;;;;5.45;2.92;;;;;;;;;;5037674;28;20029;-55
2021/11/29 14:24:33;;;;;;;6.32;2.83;;;;;;;;;;5042598;28;20518;-56
2021/11/29 14:27:11;;;;;;;10.98;4.00;;;;;;;;;;5034803;28;20477;-53
2021/11/29 14:29:40;;;;;;;3.70;2.63;;;;;;;;;;5021699;28;20270;-53
2021/11/29 14:32:07;;;;;;;7.00;3.00;;;;;;;;;;5020608;28;20393;-54
2021/11/29 14:34:34;;;;;;;3.35;1.75;;;;;;;;;;5040868;28;20120;-53
2021/11/29 14:37:00;;;;;;;15.52;2.67;;;;;;;;;;5038963;28;20021;-54
2021/11/29 14:39:28;;;;;;;2.45;1.92;;;;;;;;;;5040171;28;20376;-54